Time;durP1;ratioP1;P1;durP2;ratioP2;P2;SDS_P1;SDS_P2;PMS_P1;PMS_P2;Temp;Humidity;BMP_temperature;BMP_pressure;BME280_temperature;BME280_humidity;BME280_pressure;Samples;Min_cycle;Max_cycle;Signal;HPM_P1;HPM_P2
2023/03/17 00:00:19;;;;;;;5.22;2.22;;;;;;;2.74;76.42;100830.84;5050683;28;20033;-75
2023/03/17 00:02:47;;;;;;;6.13;2.40;;;;;;;2.77;75.21;100822.25;5054423;28;20029;-75
2023/03/17 00:05:24;;;;;;;6.00;2.47;;;;;;;2.83;74.43;100830.28;5057022;28;20089;-75
2023/03/17 00:07:51;;;;;;;9.30;2.13;;;;;;;2.91;74.02;100818.34;5054628;28;20403;-75
2023/03/17 00:10:21;;;;;;;7.15;2.28;;;;;;;2.99;73.46;100815.97;5054440;28;20249;-75
2023/03/17 00:12:48;;;;;;;3.95;2.15;;;;;;;3.03;73.53;100818.69;5050787;28;20040;-75
2023/03/17 00:15:13;;;;;;;5.75;2.30;;;;;;;3.07;72.82;100814.47;5044626;28;20056;-75
2023/03/17 00:17:41;;;;;;;5.97;2.38;;;;;;;3.11;72.55;100816.28;5054221;28;20479;-75
2023/03/17 00:20:12;;;;;;;6.15;2.15;;;;;;;3.16;72.39;100799.06;5054110;28;20079;-75
2023/03/17 00:22:38;;;;;;;10.68;2.70;;;;;;;3.17;72.42;100795.63;5054286;28;20037;-75
2023/03/17 00:25:17;;;;;;;5.00;2.00;;;;;;;3.21;72.48;100791.38;5054492;28;20497;-75
2023/03/17 00:27:42;;;;;;;6.00;1.95;;;;;;;3.18;72.57;100783.47;5054285;28;20037;-75
2023/03/17 00:30:09;;;;;;;5.30;1.98;;;;;;;3.17;72.42;100784.28;5035887;28;20090;-75
2023/03/17 00:32:36;;;;;;;5.75;2.30;;;;;;;3.17;72.49;100779.97;5050575;28;20494;-75
2023/03/17 00:35:04;;;;;;;7.35;2.75;;;;;;;3.11;72.83;100776.28;5038032;28;20033;-75
2023/03/17 00:37:30;;;;;;;3.25;1.63;;;;;;;3.11;72.36;100779.78;5115655;22;20048;-73
2023/03/17 00:39:55;;;;;;;8.55;2.00;;;;;;;3.12;72.82;100772.84;5054331;28;20052;-73
2023/03/17 00:42:23;;;;;;;6.75;1.70;;;;;;;3.07;73.06;100765.78;5066053;28;20033;-74
2023/03/17 00:44:49;;;;;;;6.95;2.70;;;;;;;3.06;73.37;100765.72;5054297;28;20037;-73
2023/03/17 00:47:14;;;;;;;6.10;2.50;;;;;;;3.03;73.43;100765.66;5064402;28;20028;-73
2023/03/17 00:49:40;;;;;;;3.40;1.70;;;;;;;3.00;73.51;100757.75;5063422;28;20040;-73
2023/03/17 00:52:08;;;;;;;4.00;2.10;;;;;;;3.04;73.23;100759.59;5063903;28;20033;-73
2023/03/17 00:54:34;;;;;;;4.90;2.15;;;;;;;3.07;72.94;100762.31;5064382;28;20033;-73
2023/03/17 00:56:59;;;;;;;4.97;1.90;;;;;;;3.03;73.42;100755.22;5067151;28;20032;-73
2023/03/17 00:59:28;;;;;;;5.18;2.13;;;;;;;3.02;73.68;100754.34;5065138;28;20107;-74
2023/03/17 01:01:55;;;;;;;6.10;2.28;;;;;;;2.98;73.03;100742.03;5064767;28;20051;-73
2023/03/17 01:04:20;;;;;;;3.72;1.95;;;;;;;3.05;72.79;100744.00;5066893;28;20032;-73
2023/03/17 01:06:48;;;;;;;6.78;2.20;;;;;;;3.11;72.12;100738.06;5048241;28;20086;-73
2023/03/17 01:09:17;;;;;;;5.78;2.00;;;;;;;3.15;71.81;100736.44;5043706;28;20120;-74
2023/03/17 01:11:42;;;;;;;4.38;2.03;;;;;;;3.13;71.78;100736.38;5060078;28;20032;-73
2023/03/17 01:14:09;;;;;;;8.15;2.30;;;;;;;3.17;71.52;100734.72;5046564;28;20040;-73
2023/03/17 01:16:35;;;;;;;8.70;2.05;;;;;;;3.16;71.36;100732.97;5046758;28;20041;-73
2023/03/17 01:19:00;;;;;;;6.15;2.10;;;;;;;3.18;70.93;100741.72;5064406;28;20038;-73
2023/03/17 01:21:26;;;;;;;5.00;1.73;;;;;;;3.21;70.83;100742.69;5065335;28;20495;-73
2023/03/17 01:23:52;;;;;;;4.93;1.98;;;;;;;3.24;69.94;100739.28;5062472;28;20063;-74
2023/03/17 01:26:17;;;;;;;6.65;2.28;;;;;;;3.21;69.83;100740.06;5065690;28;20029;-74
2023/03/17 01:28:44;;;;;;;6.43;2.58;;;;;;;3.12;69.39;100732.03;5050057;28;20075;-73
2023/03/17 01:31:09;;;;;;;9.85;2.13;;;;;;;3.08;69.38;100720.59;5064682;28;20044;-73
2023/03/17 01:33:35;;;;;;;4.85;1.60;;;;;;;3.08;69.12;100718.00;5062787;28;20395;-73
2023/03/17 01:36:00;;;;;;;4.57;2.03;;;;;;;3.04;68.84;100712.69;5065770;28;20045;-74
2023/03/17 01:38:26;;;;;;;6.35;2.22;;;;;;;2.98;69.30;100713.38;5063077;28;20040;-73
2023/03/17 01:40:52;;;;;;;4.63;2.10;;;;;;;2.96;69.36;100717.69;5062750;28;20033;-73
2023/03/17 01:43:29;;;;;;;7.30;2.50;;;;;;;2.93;69.17;100714.97;5062871;28;20119;-73
2023/03/17 01:46:03;;;;;;;4.93;2.20;;;;;;;2.92;68.75;100714.94;5064999;28;20116;-73
2023/03/17 01:48:33;;;;;;;5.90;2.00;;;;;;;2.88;68.63;100713.94;5062033;28;20041;-73
2023/03/17 01:51:00;;;;;;;6.43;2.53;;;;;;;2.88;68.55;100713.94;5062776;28;20039;-73
2023/03/17 01:53:27;;;;;;;6.13;2.03;;;;;;;2.78;68.94;100711.94;5062928;28;20472;-73
2023/03/17 01:55:55;;;;;;;4.07;1.77;;;;;;;2.75;68.97;100701.41;5062235;28;20032;-73
2023/03/17 01:58:23;;;;;;;5.80;1.95;;;;;;;2.70;68.93;100700.41;5045466;28;20418;-73
2023/03/17 02:00:49;;;;;;;4.32;1.55;;;;;;;2.68;69.17;100696.88;5063555;28;20033;-74
2023/03/17 02:03:15;;;;;;;11.18;2.17;;;;;;;2.64;69.10;100699.38;5061182;28;20033;-74
2023/03/17 02:05:41;;;;;;;6.97;1.85;;;;;;;2.60;69.52;100694.94;5050067;28;20083;-73
2023/03/17 02:08:11;;;;;;;5.93;1.95;;;;;;;2.57;69.38;100686.16;5060549;28;20044;-73
2023/03/17 02:10:38;;;;;;;6.35;1.83;;;;;;;2.55;69.62;100688.72;5060685;28;20043;-71
2023/03/17 02:13:04;;;;;;;3.97;1.70;;;;;;;2.55;69.72;100678.28;5067392;28;20033;-71
2023/03/17 02:15:47;;;;;;;6.60;1.98;;;;;;;2.52;69.60;100672.13;5045147;28;20082;-71
2023/03/17 02:18:13;;;;;;;;;;;;;;;2.55;69.17;100677.41;5061405;28;20043;-72
2023/03/17 02:20:38;;;;;;;4.68;2.00;;;;;;;2.57;69.26;100675.75;5063545;28;19999;-71
2023/03/17 02:23:05;;;;;;;3.97;1.60;;;;;;;2.66;69.13;100662.06;5050836;28;20505;-71
2023/03/17 02:25:33;;;;;;;6.45;1.90;;;;;;;2.71;68.44;100660.50;5046087;28;20032;-71
2023/03/17 02:28:07;;;;;;;5.13;1.80;;;;;;;2.78;68.40;100667.66;5060459;28;20057;-71
2023/03/17 02:30:34;;;;;;;5.68;2.15;;;;;;;2.85;67.79;100662.59;5052351;28;20036;-71
2023/03/17 02:32:59;;;;;;;4.57;2.17;;;;;;;2.88;67.18;100656.59;5061956;28;20071;-71
2023/03/17 02:35:25;;;;;;;11.70;2.05;;;;;;;2.98;67.24;100660.34;5049385;28;20064;-70
2023/03/17 02:37:51;;;;;;;6.55;1.77;;;;;;;3.08;66.84;100655.41;5061642;28;20036;-71
2023/03/17 02:40:17;;;;;;;6.38;1.65;;;;;;;3.20;66.42;100654.84;5063013;28;20025;-71
2023/03/17 02:42:43;;;;;;;4.43;1.98;;;;;;;3.25;65.44;100649.75;5048924;28;20568;-71
2023/03/17 02:45:14;;;;;;;6.95;2.40;;;;;;;3.28;65.26;100649.84;5061411;28;20036;-71
2023/03/17 02:47:41;;;;;;;8.13;2.30;;;;;;;3.30;65.51;100648.13;5063560;28;20033;-71
2023/03/17 02:50:08;;;;;;;5.68;2.92;;;;;;;3.38;64.85;100653.53;5062985;28;20111;-71
2023/03/17 02:52:33;;;;;;;5.38;1.67;;;;;;;3.42;65.21;100643.22;5059747;28;20458;-71
2023/03/17 02:54:59;;;;;;;7.57;2.13;;;;;;;3.49;64.55;100647.75;5063677;28;20068;-71
2023/03/17 02:57:24;;;;;;;7.78;2.25;;;;;;;3.56;64.20;100640.94;5041895;28;20063;-71
2023/03/17 02:59:50;;;;;;;4.18;1.50;;;;;;;3.58;64.13;100636.66;5063158;28;20372;-71
2023/03/17 03:02:15;;;;;;;4.07;1.85;;;;;;;3.61;64.11;100641.06;5063395;28;20033;-71
2023/03/17 03:04:42;;;;;;;3.58;1.45;;;;;;;3.62;63.72;100638.50;5068974;28;20037;-71
2023/03/17 03:07:07;;;;;;;5.20;1.95;;;;;;;3.60;63.77;100639.31;5060027;28;20037;-71
2023/03/17 03:09:33;;;;;;;7.55;1.60;;;;;;;3.58;64.11;100641.00;5062448;28;20085;-71
2023/03/17 03:11:59;;;;;;;5.72;2.13;;;;;;;3.51;63.38;100638.25;5059922;28;20072;-71
2023/03/17 03:14:24;;;;;;;4.65;1.90;;;;;;;3.50;64.06;100653.84;5062772;28;20090;-72
2023/03/17 03:16:49;;;;;;;5.32;2.38;;;;;;;3.45;63.83;100645.91;5065254;28;20434;-71
2023/03/17 03:19:15;;;;;;;4.97;2.08;;;;;;;3.43;63.98;100652.84;5067242;28;20120;-71
2023/03/17 03:21:40;;;;;;;3.35;1.58;;;;;;;3.46;64.07;100657.25;5062359;28;20043;-71
2023/03/17 03:24:06;;;;;;;8.45;3.13;;;;;;;3.40;63.42;100663.16;5061953;28;20068;-71
2023/03/17 03:26:31;;;;;;;4.85;2.22;;;;;;;3.37;63.74;100663.09;5063565;28;20083;-71
2023/03/17 03:28:58;;;;;;;7.13;2.10;;;;;;;3.33;64.08;100665.56;5066199;28;20410;-71
2023/03/17 03:31:24;;;;;;;3.33;1.80;;;;;;;3.33;64.14;100668.19;5066064;28;20048;-72
2023/03/17 03:33:50;;;;;;;5.13;2.15;;;;;;;3.32;64.27;100685.56;5045525;28;20037;-71
2023/03/17 03:36:16;;;;;;;4.75;1.80;;;;;;;3.30;64.45;100689.84;5064655;28;20044;-71
2023/03/17 03:38:41;;;;;;;3.78;1.95;;;;;;;3.26;63.91;100681.09;5063431;28;20064;-71
2023/03/17 03:41:07;;;;;;;5.10;2.17;;;;;;;3.25;63.93;100673.25;5064399;28;20044;-71
2023/03/17 03:43:33;;;;;;;4.40;1.95;;;;;;;3.27;64.10;100664.63;5061353;28;20475;-72
2023/03/17 03:45:59;;;;;;;4.97;1.75;;;;;;;3.33;64.41;100666.50;5062990;28;20036;-70
2023/03/17 03:48:24;;;;;;;4.82;2.28;;;;;;;3.38;63.94;100653.53;5060225;28;20051;-71
2023/03/17 03:50:49;;;;;;;6.43;2.17;;;;;;;3.39;63.79;100650.97;5061484;28;20406;-71
2023/03/17 03:53:15;;;;;;;5.90;2.25;;;;;;;3.42;63.04;100658.00;5060180;28;20029;-70
2023/03/17 03:55:40;;;;;;;7.45;2.20;;;;;;;3.41;62.45;100662.34;5061823;28;20115;-72
2023/03/17 03:58:05;;;;;;;5.20;1.90;;;;;;;3.47;63.18;100648.56;5062759;28;20039;-72
2023/03/17 04:00:31;;;;;;;5.25;1.98;;;;;;;3.50;63.17;100646.91;5059592;28;20100;-72
2023/03/17 04:02:57;;;;;;;5.85;2.03;;;;;;;3.55;62.53;100646.13;5065203;28;20115;-72
2023/03/17 04:05:23;;;;;;;2.97;1.55;;;;;;;3.61;62.59;100656.72;5070672;28;20059;-70
2023/03/17 04:07:48;;;;;;;8.00;2.55;;;;;;;3.66;62.49;100653.38;5066593;28;20028;-72
2023/03/17 04:10:15;;;;;;;4.60;2.08;;;;;;;3.69;61.86;100656.06;5062338;28;20071;-71
2023/03/17 04:12:41;;;;;;;4.13;2.03;;;;;;;3.72;61.26;100650.91;5062802;28;20021;-72
2023/03/17 04:15:08;;;;;;;5.80;2.28;;;;;;;3.76;61.12;100651.84;5058983;28;20037;-72
2023/03/17 04:17:34;;;;;;;6.47;2.22;;;;;;;3.79;61.81;100641.47;5058828;28;20037;-71
2023/03/17 04:19:59;;;;;;;3.08;1.63;;;;;;;3.77;60.70;100645.78;5062104;28;20048;-71
2023/03/17 04:22:25;;;;;;;7.50;1.90;;;;;;;3.74;61.04;100638.75;5059418;28;20033;-72
2023/03/17 04:24:51;;;;;;;4.88;2.10;;;;;;;3.74;61.46;100630.94;5062122;28;20054;-72
2023/03/17 04:27:16;;;;;;;7.22;2.22;;;;;;;3.72;61.63;100639.56;5059283;28;20037;-71
2023/03/17 04:29:42;;;;;;;4.95;2.20;;;;;;;3.71;61.36;100630.00;5063708;28;20063;-71
2023/03/17 04:32:10;;;;;;;3.60;1.60;;;;;;;3.70;61.00;100630.84;5059563;28;20419;-74
2023/03/17 04:34:35;;;;;;;5.53;2.03;;;;;;;3.68;60.98;100627.31;5063858;28;20036;-72
2023/03/17 04:37:01;;;;;;;4.90;2.08;;;;;;;3.71;59.79;100627.38;5059813;28;20032;-72
2023/03/17 04:39:26;;;;;;;4.93;2.13;;;;;;;3.73;59.43;100617.84;5062346;28;20116;-72
2023/03/17 04:41:51;;;;;;;6.50;2.17;;;;;;;3.75;58.84;100616.16;5060073;28;20418;-72
2023/03/17 04:44:17;;;;;;;5.15;2.20;;;;;;;3.80;59.31;100622.38;5060764;28;20395;-72
2023/03/17 04:46:42;;;;;;;6.03;2.25;;;;;;;3.83;60.18;100611.13;5062220;28;20111;-72
2023/03/17 04:49:08;;;;;;;5.38;2.00;;;;;;;3.82;60.20;100599.78;5062216;28;20129;-71
2023/03/17 04:51:35;;;;;;;5.13;2.30;;;;;;;3.81;60.04;100595.41;5067496;28;20068;-72
2023/03/17 04:54:01;;;;;;;5.35;2.17;;;;;;;3.81;60.12;100605.84;5071429;28;20033;-72
2023/03/17 04:56:26;;;;;;;5.35;1.75;;;;;;;3.85;59.73;100612.94;5068712;28;20380;-72
2023/03/17 04:58:52;;;;;;;5.38;2.15;;;;;;;3.87;59.95;100608.59;5063906;28;20513;-72
2023/03/17 05:01:17;;;;;;;2.75;1.75;;;;;;;3.89;59.60;100614.75;5066766;28;20040;-73
2023/03/17 05:03:42;;;;;;;4.80;1.55;;;;;;;3.93;59.58;100608.75;5068580;28;20143;-73
2023/03/17 05:06:08;;;;;;;4.40;2.03;;;;;;;3.98;59.83;100610.56;5073593;28;20036;-72
2023/03/17 05:08:33;;;;;;;4.30;1.65;;;;;;;4.00;59.89;100614.09;5062745;28;20564;-72
2023/03/17 05:10:58;;;;;;;12.38;2.30;;;;;;;4.02;59.88;100615.03;5053512;28;20040;-72
2023/03/17 05:13:25;;;;;;;6.95;2.47;;;;;;;4.06;59.42;100619.44;5066621;28;20398;-72
2023/03/17 05:15:52;;;;;;;4.43;2.05;;;;;;;4.05;59.66;100618.56;5065119;28;20445;-71
2023/03/17 05:18:19;;;;;;;6.03;2.50;;;;;;;4.04;59.73;100616.81;5062145;28;20041;-72
2023/03/17 05:20:45;;;;;;;5.53;2.90;;;;;;;4.04;59.30;100613.34;5064852;28;20048;-71
2023/03/17 05:23:11;;;;;;;8.20;3.08;;;;;;;4.04;59.80;100600.28;5065379;28;20464;-71
2023/03/17 05:25:36;;;;;;;6.20;2.60;;;;;;;4.05;59.25;100607.25;5062888;28;20136;-72
2023/03/17 05:28:02;;;;;;;5.82;2.50;;;;;;;4.07;59.05;100603.81;5061314;28;20040;-72
2023/03/17 05:30:27;;;;;;;7.78;2.65;;;;;;;4.07;58.61;100602.94;5064532;28;20116;-72
2023/03/17 05:32:53;;;;;;;5.53;2.63;;;;;;;4.06;58.24;100614.22;5054835;28;20553;-72
2023/03/17 05:35:18;;;;;;;4.63;2.17;;;;;;;4.10;58.37;100605.63;5071856;28;20046;-73
2023/03/17 05:37:44;;;;;;;5.82;2.70;;;;;;;4.09;57.74;100604.75;5060963;28;20028;-73
2023/03/17 05:40:11;;;;;;;9.63;2.15;;;;;;;4.13;58.13;100611.78;5064732;28;20044;-73
2023/03/17 05:42:37;;;;;;;4.57;2.13;;;;;;;4.15;57.51;100624.88;5066668;28;20036;-73
2023/03/17 05:45:04;;;;;;;4.72;2.25;;;;;;;4.17;57.05;100625.81;5058156;28;20040;-73
2023/03/17 05:47:31;;;;;;;5.43;2.80;;;;;;;4.18;56.80;100617.09;5070184;28;20064;-73
2023/03/17 05:49:57;;;;;;;7.05;2.58;;;;;;;4.16;57.03;100630.13;5067776;28;20033;-73
2023/03/17 05:52:22;;;;;;;6.68;2.47;;;;;;;4.17;56.88;100624.06;5052985;28;20403;-73
2023/03/17 05:54:47;;;;;;;5.60;2.20;;;;;;;4.17;56.67;100629.28;5066067;28;20028;-73
2023/03/17 05:57:14;;;;;;;4.90;2.10;;;;;;;4.26;55.44;100620.75;5067930;28;20032;-73
2023/03/17 05:59:41;;;;;;;7.30;2.10;;;;;;;4.19;55.98;100631.91;5070411;28;20028;-73
2023/03/17 06:02:07;;;;;;;6.70;2.80;;;;;;;4.15;56.39;100636.19;5072640;28;20103;-73
2023/03/17 06:04:32;;;;;;;5.03;2.53;;;;;;;4.14;56.82;100631.84;5074426;28;20031;-73
2023/03/17 06:06:58;;;;;;;2.92;1.48;;;;;;;4.18;56.22;100627.56;5066699;28;20034;-73
2023/03/17 06:09:23;;;;;;;49.95;17.90;;;;;;;4.15;56.79;100641.44;5064864;28;20449;-73
2023/03/17 06:11:48;;;;;;;13.23;12.13;;;;;;;4.20;57.25;100638.91;5068890;28;20437;-73
2023/03/17 06:14:14;;;;;;;13.48;12.40;;;;;;;4.24;56.80;100639.84;5076869;28;20108;-73
2023/03/17 06:16:39;;;;;;;11.40;10.30;;;;;;;4.31;57.22;100636.53;5068261;28;20135;-73
2023/03/17 06:19:05;;;;;;;13.70;12.52;;;;;;;4.34;56.80;100652.25;5063985;28;20049;-73
2023/03/17 06:21:30;;;;;;;12.00;11.13;;;;;;;4.33;56.89;100640.94;5062466;28;20136;-73
2023/03/17 06:23:55;;;;;;;13.15;10.48;;;;;;;4.39;56.97;100641.06;5060165;28;20086;-73
2023/03/17 06:26:21;;;;;;;12.15;9.93;;;;;;;4.43;56.54;100630.66;5062533;28;20041;-73
2023/03/17 06:28:46;;;;;;;13.45;10.73;;;;;;;4.51;57.29;100623.88;5062691;28;20032;-73
2023/03/17 06:31:11;;;;;;;11.98;10.98;;;;;;;4.59;56.97;100623.19;5060549;28;20041;-73
2023/03/17 06:33:37;;;;;;;12.10;11.18;;;;;;;4.70;57.14;100636.44;5062916;28;20062;-73
2023/03/17 06:36:03;;;;;;;17.13;13.90;;;;;;;4.72;55.94;100639.97;5070885;28;20035;-73
2023/03/17 06:38:28;;;;;;;14.20;13.05;;;;;;;4.83;56.02;100643.69;5066625;28;20033;-75
2023/03/17 06:40:54;;;;;;;17.48;16.27;;;;;;;4.89;55.45;100642.91;5059783;28;20060;-76
2023/03/17 06:43:21;;;;;;;18.95;17.42;;;;;;;4.97;56.27;100638.69;5069147;28;20066;-75
2023/03/17 06:45:46;;;;;;;19.55;17.92;;;;;;;5.04;55.83;100626.63;5067300;28;20517;-75
2023/03/17 06:48:12;;;;;;;25.45;23.52;;;;;;;5.13;56.21;100634.63;5066611;28;20111;-75
2023/03/17 06:50:37;;;;;;;28.08;26.30;;;;;;;5.20;56.07;100648.69;5061832;28;20091;-75
2023/03/17 06:53:03;;;;;;;24.00;22.35;;;;;;;5.25;56.36;100657.50;5059834;28;20047;-75
2023/03/17 06:55:29;;;;;;;26.15;24.13;;;;;;;5.27;56.31;100648.84;5065331;28;20517;-75
2023/03/17 06:57:54;;;;;;;24.80;23.33;;;;;;;5.32;55.93;100653.25;5069641;28;20032;-76
2023/03/17 07:00:21;;;;;;;26.40;24.65;;;;;;;5.37;56.00;100652.50;5067440;28;20029;-75
2023/03/17 07:02:46;;;;;;;29.10;27.35;;;;;;;5.45;55.41;100644.78;5047395;28;20032;-75
2023/03/17 07:05:12;;;;;;;47.58;44.83;;;;;;;5.51;55.45;100639.63;5062675;28;20044;-75
2023/03/17 07:07:38;;;;;;;38.58;36.28;;;;;;;5.60;55.50;100634.53;5067703;28;20036;-75
2023/03/17 07:10:04;;;;;;;48.03;45.45;;;;;;;5.65;55.40;100625.00;5063795;28;20100;-75
2023/03/17 07:12:30;;;;;;;55.60;52.72;;;;;;;5.67;54.87;100625.91;5063706;28;20101;-75
2023/03/17 07:14:55;;;;;;;104.80;99.80;;;;;;;5.79;55.18;100624.31;5065549;28;20549;-75
2023/03/17 07:17:21;;;;;;;115.63;110.38;;;;;;;5.84;54.21;100614.78;5068605;28;20036;-75
2023/03/17 07:19:46;;;;;;;125.03;119.47;;;;;;;5.95;54.68;100600.16;5064567;28;20036;-75
2023/03/17 07:22:11;;;;;;;127.72;122.00;;;;;;;6.05;54.60;100599.44;5065231;28;20036;-75
2023/03/17 07:24:37;;;;;;;132.93;126.90;;;;;;;6.14;54.42;100583.81;5060269;28;20079;-75
2023/03/17 07:27:02;;;;;;;154.13;147.13;;;;;;;6.16;54.39;100589.09;5068212;28;20036;-75
2023/03/17 07:29:28;;;;;;;126.93;121.30;;;;;;;6.18;54.43;100583.84;5044504;28;20036;-75
2023/03/17 07:31:53;;;;;;;96.75;92.10;;;;;;;6.17;55.03;100590.84;5066153;28;20495;-75
2023/03/17 07:34:19;;;;;;;83.35;79.30;;;;;;;6.13;54.32;100605.66;5068700;28;20039;-75
2023/03/17 07:36:44;;;;;;;17.05;15.55;;;;;;;6.11;54.48;100607.38;5062819;28;20533;-76
2023/03/17 07:39:10;;;;;;;22.35;20.80;;;;;;;6.12;54.80;100603.88;5060214;28;20039;-75
2023/03/17 07:41:35;;;;;;;13.43;12.48;;;;;;;6.12;54.17;100592.53;5068111;28;20064;-75
2023/03/17 07:44:01;;;;;;;16.50;15.30;;;;;;;6.18;54.40;100586.47;5061708;28;20410;-76
2023/03/17 07:46:26;;;;;;;12.30;11.25;;;;;;;6.23;54.00;100592.66;5068194;28;20430;-75
2023/03/17 07:48:52;;;;;;;13.65;12.63;;;;;;;6.32;54.32;100569.19;5062557;28;20062;-75
2023/03/17 07:51:22;;;;;;;16.33;14.90;;;;;;;6.40;53.66;100562.28;5060005;28;20041;-75
2023/03/17 07:53:51;;;;;;;19.75;18.55;;;;;;;6.41;53.19;100564.03;5062858;28;20034;-75
2023/03/17 07:56:17;;;;;;;18.20;16.67;;;;;;;6.53;54.17;100572.03;5059161;28;20033;-76
2023/03/17 07:58:42;;;;;;;13.43;12.50;;;;;;;6.66;54.22;100578.31;5064323;28;20029;-75
2023/03/17 08:01:08;;;;;;;13.93;12.57;;;;;;;6.84;54.19;100577.63;5065253;28;20403;-75
2023/03/17 08:03:35;;;;;;;13.07;11.93;;;;;;;6.90;53.34;100579.41;5059490;28;20161;-75
2023/03/17 08:06:01;;;;;;;18.33;16.88;;;;;;;6.94;53.22;100568.06;5053510;28;20108;-75
2023/03/17 08:08:27;;;;;;;15.73;14.52;;;;;;;7.04;53.13;100562.03;5061598;28;20058;-75
2023/03/17 08:11:00;;;;;;;16.92;15.68;;;;;;;7.14;52.21;100563.00;5062900;28;20028;-75
2023/03/17 08:13:26;;;;;;;22.92;21.33;;;;;;;7.19;52.72;100571.81;5065653;28;20082;-75
2023/03/17 08:15:52;;;;;;;25.35;23.38;;;;;;;7.29;52.31;100573.63;5066779;28;20041;-75
2023/03/17 08:18:17;;;;;;;29.42;27.58;;;;;;;7.36;51.85;100570.19;5059065;28;20037;-75
2023/03/17 08:20:43;;;;;;;28.20;25.95;;;;;;;7.50;51.95;100566.78;5060308;28;20046;-75
2023/03/17 08:23:08;;;;;;;24.52;22.88;;;;;;;7.58;51.84;100552.84;5068459;28;20033;-76
2023/03/17 08:25:33;;;;;;;19.25;17.88;;;;;;;7.72;51.43;100552.91;5066843;28;20033;-75
2023/03/17 08:27:59;;;;;;;26.60;24.83;;;;;;;7.80;51.04;100555.56;5063322;28;20079;-75
2023/03/17 08:30:24;;;;;;;29.58;27.63;;;;;;;7.72;49.33;100546.78;5053272;28;20108;-75
2023/03/17 08:32:51;;;;;;;1999.90;999.90;;;;;;;7.81;50.24;100542.47;5067015;28;20043;-75
2023/03/17 08:35:17;;;;;;;1999.90;999.90;;;;;;;7.94;49.69;100545.13;5066668;28;20112;-75
2023/03/17 08:37:44;;;;;;;1999.90;999.90;;;;;;;7.95;48.76;100550.41;5071751;28;20048;-75
2023/03/17 08:40:12;;;;;;;1999.90;999.90;;;;;;;8.05;49.16;100538.19;5069710;28;20036;-75
2023/03/17 08:42:38;;;;;;;1999.90;999.90;;;;;;;8.14;48.48;100540.84;5062204;28;20075;-75
2023/03/17 08:45:05;;;;;;;1999.90;999.90;;;;;;;8.23;48.71;100543.53;5069423;28;20064;-75
2023/03/17 08:47:32;;;;;;;1999.90;999.90;;;;;;;8.35;48.98;100533.03;5047982;28;20036;-75
2023/03/17 08:49:59;;;;;;;1999.90;999.90;;;;;;;8.49;49.59;100548.03;5066356;28;20028;-75
2023/03/17 08:52:26;;;;;;;1999.90;999.90;;;;;;;8.56;48.42;100544.50;5054693;28;20394;-76
2023/03/17 08:54:52;;;;;;;1999.90;999.90;;;;;;;8.67;48.98;100539.28;5064293;28;20040;-76
2023/03/17 08:57:18;;;;;;;1999.90;999.90;;;;;;;8.84;49.06;100534.91;5063633;28;20546;-75
2023/03/17 08:59:43;;;;;;;1999.90;999.90;;;;;;;9.06;49.03;100542.81;5064670;28;20040;-75
2023/03/17 09:02:11;;;;;;;1999.90;999.90;;;;;;;9.10;48.02;100532.31;5063793;28;20099;-76
2023/03/17 09:04:37;;;;;;;1999.90;999.90;;;;;;;9.32;47.88;100532.28;5063866;28;20043;-76
2023/03/17 09:07:03;;;;;;;1999.90;999.90;;;;;;;9.38;47.16;100532.28;5064949;28;20029;-76
2023/03/17 09:09:29;;;;;;;1999.90;999.90;;;;;;;9.61;48.22;100535.75;5066030;28;20032;-75
2023/03/17 09:11:55;;;;;;;1999.90;999.90;;;;;;;9.81;46.80;100521.66;5068499;28;20063;-75
2023/03/17 09:14:23;;;;;;;1999.90;999.90;;;;;;;9.99;47.49;100529.50;5062589;28;20144;-75
2023/03/17 09:16:49;;;;;;;1999.90;999.90;;;;;;;10.03;45.58;100525.97;5064941;28;20040;-76
2023/03/17 09:19:15;;;;;;;1999.90;999.90;;;;;;;10.18;46.86;100522.38;5062076;28;20125;-76
2023/03/17 09:21:41;;;;;;;1999.90;999.90;;;;;;;10.35;45.58;100517.06;5055505;28;20033;-76
2023/03/17 09:24:07;;;;;;;1999.90;999.90;;;;;;;10.41;44.60;100519.66;5067237;28;20028;-75
2023/03/17 09:26:32;;;;;;;1999.90;999.90;;;;;;;10.39;44.93;100513.50;5068198;28;20406;-75
2023/03/17 09:28:58;;;;;;;1999.90;999.90;;;;;;;10.45;44.71;100518.75;5061163;28;20040;-75
2023/03/17 09:31:23;;;;;;;1999.90;999.90;;;;;;;10.44;44.95;100514.34;5068431;28;20040;-76
2023/03/17 09:33:48;;;;;;;1999.90;999.90;;;;;;;10.53;44.89;100516.97;5061813;28;20029;-75
2023/03/17 09:36:14;;;;;;;1999.90;999.90;;;;;;;10.56;43.41;100507.25;5069627;28;20048;-75
2023/03/17 09:38:39;;;;;;;1999.90;999.90;;;;;;;10.56;43.90;100502.88;5065404;28;20083;-76
2023/03/17 09:41:24;;;;;;;1999.90;999.90;;;;;;;10.69;43.50;100499.25;5063303;28;20041;-75
2023/03/17 09:43:58;;;;;;;1999.90;999.90;;;;;;;10.73;42.72;100508.00;5065217;28;20491;-75
2023/03/17 09:46:41;;;;;;;1999.90;999.90;;;;;;;10.70;42.60;100505.41;5064927;28;20039;-76
2023/03/17 09:49:35;;;;;;;1999.90;999.90;;;;;;;10.74;42.63;100501.84;5054638;28;20471;-75
2023/03/17 09:52:01;;;;;;;4.88;2.97;;;;;;;10.81;42.95;100506.19;5063931;28;20119;-75
2023/03/17 09:54:31;;;;;;;4.22;2.00;;;;;;;10.70;42.08;100501.00;5067294;28;20044;-75
2023/03/17 09:57:05;;;;;;;6.07;2.60;;;;;;;10.82;44.01;100500.03;5065595;28;20032;-75
2023/03/17 09:59:36;;;;;;;4.30;2.45;;;;;;;11.04;43.71;100491.94;5064430;28;20042;-75
2023/03/17 10:02:02;;;;;;;4.65;2.53;;;;;;;11.15;43.24;100492.72;5062862;28;20037;-76
2023/03/17 10:04:27;;;;;;;4.47;2.50;;;;;;;11.29;42.84;100482.00;5070925;28;20073;-75
2023/03/17 10:07:00;;;;;;;4.05;2.30;;;;;;;11.31;42.20;100477.59;5062222;28;20541;-75
2023/03/17 10:09:44;;;;;;;4.45;2.50;;;;;;;11.45;42.03;100485.38;5045774;28;20032;-76
2023/03/17 10:12:25;;;;;;;3.03;1.63;;;;;;;11.59;41.15;100480.81;5068681;28;20040;-76
2023/03/17 10:15:00;;;;;;;3.45;1.65;;;;;;;11.69;40.47;100477.19;5068403;28;20044;-75
2023/03/17 10:17:44;;;;;;;2.38;1.67;;;;;;;11.77;41.35;100487.66;5064509;28;20556;-76
2023/03/17 10:20:20;;;;;;;188.75;91.13;;;;;;;11.79;40.40;100481.47;5060413;28;20032;-76
2023/03/17 10:23:06;;;;;;;4.05;1.80;;;;;;;11.85;40.62;100480.53;5063511;28;20041;-75
2023/03/17 10:25:34;;;;;;;4.88;2.30;;;;;;;11.86;41.39;100479.66;5061548;28;20047;-75
2023/03/17 10:28:22;;;;;;;4.13;1.95;;;;;;;11.98;40.45;100479.50;5052975;28;20676;-76
2023/03/17 10:30:47;;;;;;;4.72;1.85;;;;;;;12.07;41.25;100473.22;5064731;28;20039;-76
2023/03/17 10:33:12;;;;;;;3.67;2.00;;;;;;;12.14;40.60;100469.59;5066472;28;20028;-75
2023/03/17 10:35:39;;;;;;;3.10;1.90;;;;;;;12.25;41.08;100470.31;5065976;28;20037;-75
2023/03/17 10:38:18;;;;;;;4.38;2.00;;;;;;;12.39;39.49;100469.25;5065464;28;20039;-76
2023/03/17 10:40:46;;;;;;;4.97;1.90;;;;;;;12.49;39.72;100468.22;5063459;28;20033;-76
2023/03/17 10:43:18;;;;;;;5.05;2.45;;;;;;;12.58;39.03;100472.50;5062122;28;20054;-75
2023/03/17 10:46:05;;;;;;;3.35;2.22;;;;;;;12.51;38.65;100471.72;5068776;28;20036;-76
2023/03/17 10:48:35;;;;;;;5.20;2.72;;;;;;;12.70;40.21;100473.16;5066490;28;20107;-75
2023/03/17 10:51:07;;;;;;;5.32;2.20;;;;;;;12.80;39.29;100460.66;5059596;28;20037;-76
2023/03/17 10:53:37;;;;;;;5.63;2.92;;;;;;;12.93;38.87;100462.19;5062746;28;20571;-76
2023/03/17 10:56:08;;;;;;;8.70;5.82;;;;;;;13.07;39.13;100456.69;5061330;28;20041;-76
2023/03/17 10:58:42;;;;;;;4.90;2.80;;;;;;;13.25;39.20;100449.28;5063513;28;20454;-76
2023/03/17 11:01:19;;;;;;;5.40;2.58;;;;;;;13.30;37.86;100452.75;5063469;28;20028;-75
2023/03/17 11:03:46;;;;;;;5.57;2.10;;;;;;;13.40;38.29;100449.03;5061075;28;20045;-76
2023/03/17 11:06:18;;;;;;;4.05;2.22;;;;;;;13.59;38.23;100447.75;5065572;28;20037;-76
2023/03/17 11:08:54;;;;;;;4.60;2.83;;;;;;;13.67;37.91;100446.75;5062158;28;20040;-77
2023/03/17 11:11:28;;;;;;;5.95;2.50;;;;;;;13.82;38.01;100447.31;5062380;28;20519;-76
2023/03/17 11:14:02;;;;;;;194.57;89.63;;;;;;;13.84;37.54;100441.97;5066529;28;20024;-76
2023/03/17 11:16:33;;;;;;;5.40;2.80;;;;;;;13.92;37.03;100436.50;5060591;28;20072;-76
2023/03/17 11:19:01;;;;;;;5.28;2.25;;;;;;;14.08;35.83;100437.06;5049900;28;20060;-76
2023/03/17 11:21:31;;;;;;;4.65;2.58;;;;;;;14.20;36.10;100436.75;5062547;28;20075;-76
2023/03/17 11:24:20;;;;;;;3.38;2.03;;;;;;;14.28;35.83;100434.81;5065501;28;20036;-76